NSY weather

Sigonella Navy Air Base
Sigonella (CT), Sicily, Italy

Public forecast

Using degrees Celsius for public forecast. Weather courtesy of forecast.io.

Current aviation weather report (METAR) for Sigonella Navy Air Base

Retrieved 2019/12/05 15:55 UTC (56 minutes ago):

LICZ 051555Z 26003KT 4000 BR SCT018 BKN060 14/14 Q1021 RMK OVC VIS MIN 2500SW WIND THR28 27004KT WIND THR10 /////KT A3017 YLO

Aviation forecast (TAF) for Sigonella Navy Air Base

Retrieved 2019/12/05 12:27 UTC (4 hours ago):

TAF LICZ 051100Z 0512/0612 24012KT 8000 SCT020 BKN060 TEMPO 0514/0518 14008KT 7000 RA TEMPO 0524/0603 3000 BR SCT010 BECMG 0608/0610 28013KT 9999 SCT030